Solon, Ohio
Current Conditions -  °F | °C
As of 10:45 AM on Wednesday 26 Nov 2014 (Local Time) from KCGF Reporting Station
Overcast Overcast  
Wind Chill: 31°   Ceiling: 3000
Heat Index: 37°   Visibility: 10mi
Dew Point: 28°   Wind: 8mph
Humidity: 70%   Direction: 70°ENE
Pressure: 30.13"   Gusts: NA
Location:  41.39°N, 81.43°W
Report Text: KCGF 261545Z 07007KT 10SM OVC030 03/M02 A3013
Loading
Personal Weather Stations






























Interactive Weather Map New forecast layout! Learn more

10-Day Weather Forecast

Advertisements
Track Severe Weather on mobile